Time;durP1;ratioP1;P1;durP2;ratioP2;P2;SDS_P1;SDS_P2;PMS_P1;PMS_P2;Temp;Humidity;BMP_temperature;BMP_pressure;BME280_temperature;BME280_humidity;BME280_pressure;Samples;Min_cycle;Max_cycle;Signal;HPM_P1;HPM_P2
2021/12/25 00:02:09;;;;;;;0.10;0.10;;;7.30;99.90;;;;;;5072770;28;20029;-75
2021/12/25 00:04:35;;;;;;;0.28;0.28;;;7.30;99.90;;;;;;5055981;28;20064;-73
2021/12/25 00:07:01;;;;;;;0.20;0.20;;;7.20;99.90;;;;;;5073711;28;20049;-73
2021/12/25 00:09:27;;;;;;;0.15;0.15;;;7.20;99.90;;;;;;5073629;28;20029;-74
2021/12/25 00:11:53;;;;;;;2.08;1.70;;;7.30;99.90;;;;;;5072490;28;20472;-74
2021/12/25 00:14:20;;;;;;;0.30;0.20;;;7.20;99.90;;;;;;5073746;28;20016;-74
2021/12/25 00:16:46;;;;;;;0.20;0.20;;;7.20;99.90;;;;;;5073541;28;20017;-73
2021/12/25 00:19:12;;;;;;;0.10;0.10;;;7.20;99.90;;;;;;5073529;28;20028;-73
2021/12/25 00:21:38;;;;;;;0.40;0.40;;;7.20;99.90;;;;;;5073658;28;20037;-74
2021/12/25 00:24:04;;;;;;;0.20;0.20;;;7.20;99.90;;;;;;5072405;28;20025;-74
2021/12/25 00:29:53;;;;;;;0.10;0.10;;;7.30;99.90;;;;;;5073328;28;20036;-74
2021/12/25 00:34:37;;;;;;;0.10;0.10;;;7.50;99.90;;;;;;5073359;28;20058;-74
2021/12/25 00:37:04;;;;;;;0.10;0.10;;;7.50;99.90;;;;;;5073137;28;20024;-74
2021/12/25 00:39:30;;;;;;;5.78;2.50;;;7.60;99.90;;;;;;5071910;28;20112;-74
2021/12/25 00:41:57;;;;;;;0.10;0.10;;;7.50;99.90;;;;;;5072007;28;20024;-74
2021/12/25 00:44:24;;;;;;;0.10;0.10;;;7.50;99.90;;;;;;5072870;28;20091;-73
2021/12/25 00:46:50;;;;;;;0.10;0.10;;;7.50;99.90;;;;;;5071604;28;20021;-74
2021/12/25 00:49:16;;;;;;;0.22;0.22;;;7.40;99.90;;;;;;5072882;28;20028;-74
2021/12/25 00:51:42;;;;;;;0.10;0.10;;;7.40;99.90;;;;;;5073081;28;20032;-74
2021/12/25 00:54:09;;;;;;;0.20;0.20;;;7.40;99.90;;;;;;5073183;28;20021;-74
2021/12/25 00:56:35;;;;;;;0.10;0.10;;;7.50;99.90;;;;;;5072760;28;20361;-74
2021/12/25 00:59:00;;;;;;;0.20;0.20;;;7.50;99.90;;;;;;5071528;28;20035;-74
2021/12/25 01:01:26;;;;;;;0.10;0.10;;;7.70;99.90;;;;;;5072698;28;20503;-74
2021/12/25 01:03:52;;;;;;;0.30;0.30;;;7.70;99.90;;;;;;5072763;28;20025;-74
2021/12/25 01:06:17;;;;;;;0.10;0.10;;;7.80;99.90;;;;;;5072589;28;20452;-74
2021/12/25 01:08:43;;;;;;;0.10;0.10;;;7.60;99.90;;;;;;5072376;28;20036;-74
2021/12/25 01:11:09;;;;;;;0.15;0.15;;;7.70;99.90;;;;;;5072655;28;20393;-74
2021/12/25 01:13:40;;;;;;;0.10;0.10;;;7.60;99.90;;;;;;5071322;28;20035;-74
2021/12/25 01:21:37;;;;;;;0.10;0.10;;;7.50;99.90;;;;;;5072504;28;20016;-74
2021/12/25 01:24:21;;;;;;;0.10;0.10;;;7.40;99.90;;;;;;5071068;28;20020;-74
2021/12/25 01:27:11;;;;;;;0.10;0.10;;;7.40;99.90;;;;;;5070925;28;20574;-74
2021/12/25 01:38:07;;;;;;;0.10;0.10;;;7.10;99.90;;;;;;5070716;28;20107;-73
2021/12/25 01:48:37;;;;;;;0.20;0.20;;;7.00;99.90;;;;;;5070648;28;20037;-74
2021/12/25 01:51:03;;;;;;;0.10;0.10;;;6.90;99.90;;;;;;5072054;28;20150;-74
2021/12/25 01:53:29;;;;;;;0.10;0.10;;;6.90;99.90;;;;;;5072264;28;20067;-74
2021/12/25 01:55:57;;;;;;;0.10;0.10;;;6.90;99.90;;;;;;5071869;28;20052;-74
2021/12/25 01:58:23;;;;;;;0.10;0.10;;;6.90;99.90;;;;;;5071864;28;20511;-74
2021/12/25 02:00:51;;;;;;;0.20;0.20;;;6.90;99.90;;;;;;5070572;28;20123;-74
2021/12/25 02:03:20;;;;;;;0.10;0.10;;;6.80;99.90;;;;;;5070640;28;20067;-74
2021/12/25 02:05:46;;;;;;;0.17;0.17;;;6.90;99.90;;;;;;5071766;28;20536;-74
2021/12/25 02:08:12;;;;;;;0.10;0.10;;;7.00;99.90;;;;;;5071764;28;20123;-74
2021/12/25 02:10:38;;;;;;;0.10;0.10;;;6.90;99.90;;;;;;5070499;28;20494;-74
2021/12/25 02:13:04;;;;;;;0.10;0.10;;;7.00;99.90;;;;;;5071860;28;20025;-74
2021/12/25 02:15:32;;;;;;;0.10;0.10;;;7.10;99.90;;;;;;5071670;28;20028;-73
2021/12/25 02:18:10;;;;;;;0.10;0.10;;;7.10;99.90;;;;;;5071808;28;20052;-73
2021/12/25 02:20:48;;;;;;;0.10;0.10;;;7.10;99.90;;;;;;5071709;28;20528;-73
2021/12/25 02:23:22;;;;;;;0.20;0.20;;;7.00;99.90;;;;;;5072058;28;20025;-73
2021/12/25 02:25:50;;;;;;;0.10;0.10;;;6.90;99.90;;;;;;5071734;28;20021;-73
2021/12/25 02:28:17;;;;;;;0.10;0.10;;;6.80;99.90;;;;;;5071655;28;20028;-73
2021/12/25 02:30:45;;;;;;;0.20;0.20;;;6.70;99.90;;;;;;5071484;28;20020;-73
2021/12/25 02:33:11;;;;;;;0.10;0.10;;;6.70;99.90;;;;;;5074524;28;20033;-73
2021/12/25 02:35:37;;;;;;;0.10;0.10;;;6.80;99.90;;;;;;5075512;28;20392;-73
2021/12/25 02:38:04;;;;;;;0.30;0.30;;;6.80;99.90;;;;;;5075635;28;20428;-73
2021/12/25 02:40:30;;;;;;;0.20;0.20;;;6.70;99.90;;;;;;5075419;28;20388;-73
2021/12/25 02:42:56;;;;;;;0.10;0.10;;;6.70;99.90;;;;;;5073978;28;20458;-73
2021/12/25 02:45:23;;;;;;;0.10;0.10;;;6.80;99.90;;;;;;5075352;28;20078;-73
2021/12/25 02:47:53;;;;;;;0.20;0.20;;;6.80;99.90;;;;;;5075277;28;20113;-73
2021/12/25 02:50:30;;;;;;;0.30;0.30;;;6.80;99.90;;;;;;5075194;28;20020;-73
2021/12/25 02:52:58;;;;;;;0.20;0.20;;;6.70;99.90;;;;;;5074185;28;20476;-73
2021/12/25 02:55:24;;;;;;;0.10;0.10;;;6.70;99.90;;;;;;5074171;28;20013;-73
2021/12/25 02:57:51;;;;;;;0.10;0.10;;;6.70;99.90;;;;;;5075138;28;20024;-73
2021/12/25 03:00:19;;;;;;;0.10;0.10;;;6.70;99.90;;;;;;5074919;28;20033;-73
2021/12/25 03:02:45;;;;;;;0.15;0.15;;;6.80;99.90;;;;;;5075129;28;20070;-73
2021/12/25 03:05:11;;;;;;;0.10;0.10;;;6.90;99.90;;;;;;5074997;28;20433;-73
2021/12/25 03:07:37;;;;;;;0.10;0.10;;;7.10;99.90;;;;;;5073475;28;20028;-73
2021/12/25 03:10:05;;;;;;;0.20;0.20;;;7.20;99.90;;;;;;5074706;28;20025;-73
2021/12/25 03:12:37;;;;;;;0.20;0.20;;;7.10;99.90;;;;;;5074913;28;20044;-73
2021/12/25 03:15:13;;;;;;;0.10;0.10;;;6.90;99.90;;;;;;5073652;28;20567;-73
2021/12/25 03:17:40;;;;;;;0.25;0.25;;;6.70;99.90;;;;;;5073469;28;20477;-73
2021/12/25 03:20:08;;;;;;;3.92;0.90;;;6.50;99.90;;;;;;5073299;28;20028;-73
2021/12/25 03:22:34;;;;;;;0.20;0.20;;;6.40;99.90;;;;;;5073470;28;20024;-73
2021/12/25 03:25:00;;;;;;;0.13;0.13;;;6.50;99.90;;;;;;5074693;28;20020;-74
2021/12/25 03:27:26;;;;;;;0.10;0.10;;;6.40;99.90;;;;;;5074503;28;20407;-73
2021/12/25 03:29:52;;;;;;;0.10;0.10;;;6.40;99.90;;;;;;5074411;28;20032;-73
2021/12/25 03:32:18;;;;;;;0.20;0.20;;;6.30;99.90;;;;;;5056600;28;20020;-73
2021/12/25 03:34:44;;;;;;;0.10;0.10;;;6.50;99.90;;;;;;5073164;28;20392;-73
2021/12/25 03:37:09;;;;;;;0.20;0.20;;;6.50;99.90;;;;;;5074294;28;20029;-73
2021/12/25 03:39:35;;;;;;;0.20;0.20;;;6.50;99.90;;;;;;5072999;28;20094;-73
2021/12/25 03:42:02;;;;;;;0.10;0.10;;;6.40;99.90;;;;;;5073993;28;20056;-73
2021/12/25 03:44:29;;;;;;;0.20;0.20;;;6.40;99.90;;;;;;5074381;28;20112;-73
2021/12/25 03:47:00;;;;;;;0.17;0.17;;;6.30;99.90;;;;;;5074294;28;20028;-73
2021/12/25 03:53:06;;;;;;;0.20;0.20;;;6.30;99.90;;;;;;5074120;28;20476;-73
2021/12/25 03:57:51;;;;;;;0.15;0.15;;;6.30;99.90;;;;;;5074184;28;20023;-73
2021/12/25 04:00:26;;;;;;;0.10;0.10;;;6.50;99.90;;;;;;5072721;28;20048;-73
2021/12/25 04:02:56;;;;;;;0.13;0.13;;;6.60;99.90;;;;;;5072851;28;20021;-73
2021/12/25 04:05:27;;;;;;;0.10;0.10;;;6.70;99.90;;;;;;5073947;28;20032;-73
2021/12/25 04:08:03;;;;;;;0.10;0.10;;;6.80;99.90;;;;;;5073898;28;20503;-73
2021/12/25 04:10:34;;;;;;;0.20;0.20;;;6.90;99.90;;;;;;5073670;28;20427;-73
2021/12/25 04:13:00;;;;;;;0.13;0.13;;;7.00;99.90;;;;;;5073855;28;20040;-73
2021/12/25 04:15:26;;;;;;;0.17;0.17;;;7.00;99.90;;;;;;5073685;28;20024;-73
2021/12/25 04:17:52;;;;;;;0.10;0.10;;;6.90;99.90;;;;;;5073647;28;20021;-73
2021/12/25 04:20:18;;;;;;;0.10;0.10;;;6.90;99.90;;;;;;5072498;28;20492;-73
2021/12/25 04:22:54;;;;;;;0.20;0.20;;;6.90;99.90;;;;;;5055648;28;20123;-74
2021/12/25 04:25:26;;;;;;;0.10;0.10;;;6.90;99.90;;;;;;5073556;28;20031;-73
2021/12/25 04:27:52;;;;;;;0.10;0.10;;;6.80;99.90;;;;;;5073451;28;20122;-73
2021/12/25 04:30:38;;;;;;;0.17;0.17;;;6.80;99.90;;;;;;5073319;28;20500;-73
2021/12/25 04:49:49;;;;;;;0.10;0.10;;;6.60;99.90;;;;;;5072878;28;20155;-73
2021/12/25 05:03:22;;;;;;;0.30;0.30;;;6.30;99.90;;;;;;5073231;28;20103;-73
2021/12/25 05:05:48;;;;;;;0.20;0.20;;;6.20;99.90;;;;;;5072575;28;20052;-73
2021/12/25 05:08:14;;;;;;;0.20;0.20;;;6.20;99.90;;;;;;5072465;28;20024;-73
2021/12/25 05:10:40;;;;;;;0.20;0.20;;;6.10;99.90;;;;;;5072528;28;20047;-73
2021/12/25 05:13:06;;;;;;;0.20;0.20;;;6.20;99.90;;;;;;5072672;28;20612;-73
2021/12/25 05:15:31;;;;;;;0.20;0.20;;;6.20;99.90;;;;;;5072418;28;20095;-73
2021/12/25 05:17:57;;;;;;;0.20;0.20;;;6.10;99.90;;;;;;5071404;28;20028;-73
2021/12/25 05:20:24;;;;;;;0.20;0.20;;;6.10;99.90;;;;;;5071057;28;20085;-73
2021/12/25 05:22:50;;;;;;;0.17;0.17;;;6.10;99.90;;;;;;5072450;28;20160;-73
2021/12/25 05:25:16;;;;;;;0.15;0.15;;;6.00;99.90;;;;;;5071055;28;20512;-73
2021/12/25 05:27:42;;;;;;;0.10;0.10;;;6.10;99.90;;;;;;5070930;28;20447;-73
2021/12/25 05:30:08;;;;;;;0.20;0.20;;;6.00;99.90;;;;;;5072115;28;20031;-73
2021/12/25 05:32:33;;;;;;;0.20;0.20;;;6.00;99.90;;;;;;5072309;28;20097;-73
2021/12/25 05:34:59;;;;;;;0.45;0.32;;;6.10;99.90;;;;;;5070829;28;20045;-73
2021/12/25 05:37:25;;;;;;;0.10;0.10;;;6.10;99.90;;;;;;5072065;28;20078;-73
2021/12/25 05:39:51;;;;;;;0.10;0.10;;;6.10;99.90;;;;;;5072034;28;20032;-73
2021/12/25 05:42:20;;;;;;;0.20;0.20;;;6.10;99.90;;;;;;5070907;28;20025;-73
2021/12/25 05:44:46;;;;;;;0.10;0.10;;;6.20;99.90;;;;;;5071932;28;20032;-73
2021/12/25 05:47:12;;;;;;;0.20;0.20;;;6.10;99.90;;;;;;5071995;28;20020;-73
2021/12/25 05:49:38;;;;;;;0.10;0.10;;;6.10;99.90;;;;;;5070613;28;20387;-73
2021/12/25 05:52:04;;;;;;;0.20;0.20;;;6.10;99.90;;;;;;5072173;28;20020;-73
2021/12/25 05:54:30;;;;;;;0.20;0.20;;;6.10;99.90;;;;;;5071982;28;20460;-73
2021/12/25 05:56:56;;;;;;;0.20;0.20;;;6.20;99.90;;;;;;5071866;28;20073;-73
2021/12/25 05:59:21;;;;;;;0.20;0.20;;;6.30;99.90;;;;;;5071809;28;20072;-73
2021/12/25 06:01:47;;;;;;;0.20;0.20;;;6.40;99.90;;;;;;5070718;28;20040;-73
2021/12/25 06:04:13;;;;;;;0.10;0.10;;;6.30;99.90;;;;;;5094552;28;20019;-73
2021/12/25 06:06:38;;;;;;;0.10;0.10;;;6.30;99.90;;;;;;5094124;28;20028;-73
2021/12/25 06:09:07;;;;;;;0.13;0.13;;;6.30;99.90;;;;;;5108503;28;20031;-74
2021/12/25 06:11:35;;;;;;;0.20;0.20;;;6.30;99.90;;;;;;5088504;28;20052;-74
2021/12/25 06:14:17;;;;;;;0.20;0.20;;;6.40;99.90;;;;;;5082955;28;20440;-74
2021/12/25 06:16:43;;;;;;;0.20;0.20;;;6.50;99.90;;;;;;5071651;28;20021;-73
2021/12/25 06:19:09;;;;;;;0.10;0.10;;;6.60;99.90;;;;;;5086286;28;20084;-74
2021/12/25 06:21:36;;;;;;;0.35;0.30;;;6.80;99.90;;;;;;5109368;28;20027;-73
2021/12/25 06:24:02;;;;;;;0.20;0.20;;;6.90;99.90;;;;;;5112077;28;20532;-73
2021/12/25 06:26:29;;;;;;;0.45;0.45;;;6.80;99.90;;;;;;5107114;28;20024;-73
2021/12/25 06:28:55;;;;;;;0.30;0.30;;;6.90;99.90;;;;;;5090402;28;20119;-74
2021/12/25 06:31:22;;;;;;;0.20;0.20;;;6.90;99.90;;;;;;5091866;28;20024;-73
2021/12/25 06:33:47;;;;;;;0.40;0.40;;;6.90;99.90;;;;;;5091716;28;20474;-73
2021/12/25 06:36:13;;;;;;;0.25;0.25;;;6.90;99.90;;;;;;5090494;28;20024;-73
2021/12/25 06:38:41;;;;;;;0.20;0.20;;;6.90;99.90;;;;;;5101308;28;20378;-74
2021/12/25 06:41:07;;;;;;;0.15;0.15;;;6.90;99.90;;;;;;5098670;28;20387;-74
2021/12/25 06:43:34;;;;;;;0.20;0.20;;;7.00;99.90;;;;;;5091658;28;20026;-73
2021/12/25 06:46:00;;;;;;;0.10;0.10;;;6.90;99.90;;;;;;5108726;28;20028;-73
2021/12/25 06:48:26;;;;;;;0.10;0.10;;;6.90;99.90;;;;;;5111824;28;20028;-73
2021/12/25 06:50:53;;;;;;;0.20;0.20;;;6.90;99.90;;;;;;5110545;28;20036;-73
2021/12/25 06:53:18;;;;;;;0.10;0.10;;;6.90;99.90;;;;;;5112004;28;20015;-74
2021/12/25 06:55:45;;;;;;;0.10;0.10;;;6.90;99.90;;;;;;5103787;28;20023;-74
2021/12/25 06:58:10;;;;;;;1.05;0.95;;;6.90;99.90;;;;;;5091377;28;20387;-74
2021/12/25 07:00:37;;;;;;;0.10;0.10;;;6.90;99.90;;;;;;5090065;28;20035;-73
2021/12/25 07:03:03;;;;;;;0.15;0.15;;;6.90;99.90;;;;;;5091464;28;20047;-74
2021/12/25 07:05:28;;;;;;;0.10;0.10;;;6.90;99.90;;;;;;5088669;28;20024;-74
2021/12/25 07:07:54;;;;;;;0.10;0.10;;;6.90;99.90;;;;;;5090483;28;20115;-74
2021/12/25 07:10:21;;;;;;;0.20;0.20;;;6.80;99.90;;;;;;5090877;28;20039;-74
2021/12/25 07:12:49;;;;;;;0.20;0.20;;;6.80;99.90;;;;;;5089998;28;20020;-73
2021/12/25 07:15:16;;;;;;;0.38;0.38;;;6.80;99.90;;;;;;5060516;28;20016;-74
2021/12/25 07:17:42;;;;;;;0.20;0.20;;;6.80;99.90;;;;;;5090385;28;20060;-74
2021/12/25 07:20:08;;;;;;;0.28;0.28;;;6.80;99.90;;;;;;5074666;28;20021;-74
2021/12/25 07:22:34;;;;;;;0.20;0.20;;;6.80;99.90;;;;;;5098504;28;20024;-73
2021/12/25 07:25:00;;;;;;;0.10;0.10;;;6.80;99.90;;;;;;5110828;28;20072;-74
2021/12/25 07:27:26;;;;;;;0.10;0.10;;;6.90;99.90;;;;;;5094621;28;20066;-74
2021/12/25 07:29:51;;;;;;;0.10;0.10;;;7.00;99.90;;;;;;5103815;28;20055;-74
2021/12/25 07:32:17;;;;;;;0.13;0.13;;;7.10;99.90;;;;;;5095251;28;20476;-74
2021/12/25 07:34:46;;;;;;;0.10;0.10;;;7.10;99.90;;;;;;5094510;28;20483;-74
2021/12/25 07:37:13;;;;;;;0.10;0.10;;;7.10;99.90;;;;;;5092824;28;20035;-74
2021/12/25 07:39:40;;;;;;;0.52;0.52;;;7.10;99.90;;;;;;5093429;28;20024;-74
2021/12/25 07:42:06;;;;;;;0.93;0.25;;;7.10;99.90;;;;;;5094308;28;20028;-74
2021/12/25 07:44:32;;;;;;;0.20;0.20;;;7.10;99.90;;;;;;5093388;28;20564;-73
2021/12/25 07:46:58;;;;;;;0.20;0.20;;;7.00;99.90;;;;;;5093083;28;20024;-73
2021/12/25 07:49:26;;;;;;;0.20;0.20;;;7.00;99.90;;;;;;5094240;28;20049;-73
2021/12/25 07:51:51;;;;;;;0.13;0.13;;;6.90;99.90;;;;;;5094390;28;20112;-73
2021/12/25 07:54:17;;;;;;;0.20;0.20;;;6.80;99.90;;;;;;5094337;28;20103;-73
2021/12/25 07:56:43;;;;;;;0.35;0.35;;;6.80;99.90;;;;;;5114093;28;20023;-73
2021/12/25 07:59:09;;;;;;;0.30;0.30;;;6.90;99.90;;;;;;5114398;28;20031;-73
2021/12/25 08:01:35;;;;;;;1.35;1.35;;;6.90;99.90;;;;;;5114627;28;20024;-74
2021/12/25 08:04:02;;;;;;;0.10;0.10;;;7.00;99.90;;;;;;5114843;28;20035;-73
2021/12/25 08:06:28;;;;;;;0.82;0.40;;;6.90;99.90;;;;;;5114348;28;20028;-73
2021/12/25 08:08:56;;;;;;;0.10;0.10;;;6.90;99.90;;;;;;5114229;28;20031;-74
2021/12/25 08:11:22;;;;;;;0.20;0.20;;;6.90;99.90;;;;;;5114408;28;20059;-73
2021/12/25 08:13:48;;;;;;;0.30;0.30;;;6.90;99.90;;;;;;5102656;28;20042;-74
2021/12/25 08:16:14;;;;;;;0.38;0.30;;;6.90;99.90;;;;;;5082528;28;20020;-74
2021/12/25 08:18:39;;;;;;;0.15;0.15;;;6.80;99.90;;;;;;5083556;28;20507;-73
2021/12/25 08:21:06;;;;;;;0.68;0.68;;;6.70;99.90;;;;;;5093842;28;20029;-74
2021/12/25 08:23:35;;;;;;;0.20;0.20;;;6.70;99.90;;;;;;5076124;28;20033;-74
2021/12/25 08:26:02;;;;;;;0.90;0.20;;;6.70;99.90;;;;;;5073130;28;20043;-74
2021/12/25 08:28:28;;;;;;;0.32;0.32;;;6.80;99.90;;;;;;5073527;28;20025;-74
2021/12/25 08:30:54;;;;;;;0.10;0.10;;;6.90;99.90;;;;;;5105938;28;20023;-74
2021/12/25 08:33:20;;;;;;;0.20;0.20;;;6.90;99.90;;;;;;5093650;28;20369;-73
2021/12/25 08:35:46;;;;;;;0.10;0.10;;;6.90;99.90;;;;;;5093411;28;20031;-73
2021/12/25 08:38:12;;;;;;;0.10;0.10;;;7.00;99.90;;;;;;5093515;28;20545;-73
2021/12/25 08:40:39;;;;;;;0.20;0.20;;;7.00;99.90;;;;;;5093367;28;20062;-74
2021/12/25 08:43:06;;;;;;;0.43;0.43;;;7.00;99.90;;;;;;5093504;28;20031;-73
2021/12/25 08:48:13;;;;;;;7.22;5.78;;;7.10;99.90;;;;;;5085740;28;20028;-73
2021/12/25 08:50:41;;;;;;;0.30;0.30;;;7.00;99.90;;;;;;5072953;28;20383;-73
2021/12/25 08:53:06;;;;;;;0.73;0.70;;;7.00;99.90;;;;;;5073015;28;20024;-74
2021/12/25 08:55:32;;;;;;;0.55;0.55;;;7.00;99.90;;;;;;5072722;28;20488;-73
2021/12/25 08:57:58;;;;;;;0.85;0.70;;;7.00;99.90;;;;;;5073145;28;20074;-73
2021/12/25 09:00:24;;;;;;;1.15;0.68;;;7.10;99.90;;;;;;5086185;28;20024;-73
2021/12/25 09:02:51;;;;;;;0.50;0.50;;;7.10;99.90;;;;;;5091826;28;20055;-73
2021/12/25 09:05:17;;;;;;;0.98;0.50;;;7.20;99.90;;;;;;5091746;28;20032;-74
2021/12/25 09:07:43;;;;;;;0.60;0.60;;;7.30;99.90;;;;;;5091171;28;20115;-74
2021/12/25 09:10:09;;;;;;;0.73;0.73;;;7.40;99.90;;;;;;5092559;28;20470;-74
2021/12/25 09:12:40;;;;;;;0.50;0.50;;;7.40;99.90;;;;;;5092908;28;20464;-74
2021/12/25 09:15:06;;;;;;;0.47;0.47;;;7.40;99.90;;;;;;5091663;28;20031;-74
2021/12/25 09:17:32;;;;;;;0.45;0.45;;;7.40;99.90;;;;;;5098266;28;20274;-73
2021/12/25 09:19:57;;;;;;;0.80;0.80;;;7.40;99.90;;;;;;5108278;28;20028;-73
2021/12/25 09:22:23;;;;;;;1.35;0.75;;;7.40;99.90;;;;;;5092594;28;20036;-73
2021/12/25 09:24:49;;;;;;;0.52;0.52;;;7.40;99.90;;;;;;5102016;28;20462;-73
2021/12/25 09:27:14;;;;;;;1.65;0.70;;;7.50;99.90;;;;;;5112835;28;20031;-73
2021/12/25 09:29:40;;;;;;;0.73;0.50;;;7.50;99.90;;;;;;5094148;22;20504;-75
2021/12/25 09:32:06;;;;;;;0.50;0.50;;;7.50;99.90;;;;;;5030690;28;20480;-75
2021/12/25 09:34:32;;;;;;;0.10;0.10;;;7.50;99.90;;;;;;5047877;28;20021;-75
2021/12/25 09:36:58;;;;;;;0.52;0.52;;;7.50;99.90;;;;;;5032220;28;20032;-75
2021/12/25 09:39:24;;;;;;;1.58;1.00;;;7.50;99.90;;;;;;5030646;28;20033;-74
2021/12/25 09:41:50;;;;;;;3.40;1.48;;;7.50;99.90;;;;;;5032037;28;20032;-75
2021/12/25 09:44:16;;;;;;;0.57;0.57;;;7.60;99.90;;;;;;5030731;28;20473;-75
2021/12/25 09:46:41;;;;;;;1.30;0.85;;;7.60;99.90;;;;;;5032073;28;20075;-75
2021/12/25 09:49:08;;;;;;;0.25;0.25;;;7.60;99.90;;;;;;5030627;28;20034;-75
2021/12/25 09:51:34;;;;;;;0.43;0.43;;;7.60;99.90;;;;;;5030967;28;20033;-75
2021/12/25 09:54:06;;;;;;;0.40;0.40;;;7.60;99.90;;;;;;5031886;28;20507;-75
2021/12/25 09:56:33;;;;;;;0.40;0.40;;;7.60;99.90;;;;;;5013980;28;20547;-75
2021/12/25 09:58:59;;;;;;;0.20;0.20;;;7.60;99.90;;;;;;5031984;28;20018;-75
2021/12/25 10:01:33;;;;;;;0.20;0.20;;;7.70;99.90;;;;;;5030562;28;20366;-75
2021/12/25 10:04:00;;;;;;;0.50;0.50;;;7.70;99.90;;;;;;5031721;28;20366;-76
2021/12/25 10:06:35;;;;;;;0.25;0.25;;;7.80;99.90;;;;;;5031345;28;20469;-75
2021/12/25 10:09:12;;;;;;;0.52;0.38;;;7.80;99.90;;;;;;5030429;28;20040;-75
2021/12/25 10:11:55;;;;;;;0.28;0.28;;;7.70;99.90;;;;;;5031783;28;20469;-75
2021/12/25 10:14:21;;;;;;;0.10;0.10;;;7.70;99.90;;;;;;5030633;28;20461;-75
2021/12/25 10:16:47;;;;;;;1.17;0.82;;;7.70;99.90;;;;;;5029060;28;20029;-76
2021/12/25 10:19:19;;;;;;;1.30;1.02;;;7.60;99.90;;;;;;5030040;28;20025;-75
2021/12/25 10:21:45;;;;;;;1.33;0.50;;;7.60;99.90;;;;;;5029338;28;20025;-75
2021/12/25 10:24:26;;;;;;;0.20;0.20;;;7.50;99.90;;;;;;5030416;28;20033;-75
2021/12/25 10:26:53;;;;;;;0.30;0.30;;;7.40;99.90;;;;;;5030388;28;20025;-75
2021/12/25 10:29:27;;;;;;;0.20;0.20;;;7.50;99.90;;;;;;5031373;28;20299;-75
2021/12/25 10:31:58;;;;;;;0.50;0.50;;;7.50;99.90;;;;;;5030484;28;20473;-75
2021/12/25 10:34:29;;;;;;;0.28;0.28;;;7.50;99.90;;;;;;5031652;28;20097;-75
2021/12/25 10:37:09;;;;;;;0.75;0.68;;;7.60;99.90;;;;;;5030322;28;20489;-76
2021/12/25 10:39:35;;;;;;;0.28;0.28;;;7.60;99.90;;;;;;5030386;28;20032;-75
2021/12/25 10:42:12;;;;;;;0.30;0.30;;;7.60;99.90;;;;;;5031536;28;20022;-75
2021/12/25 10:44:47;;;;;;;1.75;1.65;;;7.70;99.90;;;;;;5013950;28;20374;-75
2021/12/25 10:47:20;;;;;;;0.10;0.10;;;7.70;99.90;;;;;;5030168;28;20022;-75
2021/12/25 10:49:57;;;;;;;0.75;0.68;;;7.80;99.90;;;;;;5031386;28;20037;-76
2021/12/25 10:52:33;;;;;;;0.52;0.52;;;7.80;99.90;;;;;;5032433;28;20025;-76
2021/12/25 10:55:02;;;;;;;2.38;1.10;;;7.80;99.90;;;;;;5035352;28;20026;-75
2021/12/25 10:57:40;;;;;;;0.10;0.10;;;7.90;99.90;;;;;;5035074;28;20014;-75
2021/12/25 11:00:13;;;;;;;1.05;0.60;;;8.00;99.90;;;;;;5033811;28;20029;-75
2021/12/25 11:02:48;;;;;;;0.90;0.68;;;7.90;99.90;;;;;;5033682;28;20022;-75
2021/12/25 11:05:16;;;;;;;0.40;0.40;;;8.00;99.90;;;;;;5035208;28;20373;-75
2021/12/25 11:07:42;;;;;;;0.30;0.30;;;8.00;99.90;;;;;;5017300;28;20029;-75
2021/12/25 11:10:11;;;;;;;1.35;0.77;;;8.00;99.90;;;;;;5033557;28;20028;-75
2021/12/25 11:12:37;;;;;;;1.00;0.68;;;8.00;99.90;;;;;;5032640;28;20025;-75
2021/12/25 11:15:14;;;;;;;0.15;0.10;;;8.00;99.90;;;;;;5034885;28;20021;-75
2021/12/25 11:17:43;;;;;;;1.30;1.20;;;8.10;99.90;;;;;;5033519;28;20053;-75
2021/12/25 11:20:18;;;;;;;0.85;0.75;;;8.10;99.90;;;;;;5034655;28;20040;-76
2021/12/25 11:22:56;;;;;;;0.88;0.55;;;8.10;99.90;;;;;;5032626;28;20030;-75
2021/12/25 11:25:25;;;;;;;0.22;0.22;;;8.10;99.90;;;;;;5033006;28;20056;-75
2021/12/25 11:27:53;;;;;;;1.88;1.02;;;8.10;99.90;;;;;;5034471;28;20017;-75
2021/12/25 11:30:21;;;;;;;0.20;0.20;;;8.20;99.90;;;;;;5033129;28;20024;-75
2021/12/25 11:32:48;;;;;;;0.30;0.20;;;8.20;99.90;;;;;;5034567;28;20024;-75
2021/12/25 11:35:16;;;;;;;0.20;0.20;;;8.20;99.90;;;;;;5034454;28;20029;-76
2021/12/25 11:37:43;;;;;;;0.20;0.20;;;8.20;99.90;;;;;;5034361;28;20029;-75
2021/12/25 11:40:10;;;;;;;0.10;0.10;;;8.20;99.90;;;;;;5034269;28;20108;-75
2021/12/25 11:42:48;;;;;;;0.20;0.20;;;8.30;99.90;;;;;;5034453;28;20028;-75
2021/12/25 11:45:22;;;;;;;0.10;0.10;;;8.30;99.90;;;;;;5033233;28;20025;-76
2021/12/25 11:47:53;;;;;;;0.10;0.10;;;8.30;99.90;;;;;;5033589;28;20025;-75
2021/12/25 11:50:37;;;;;;;0.20;0.20;;;8.50;99.90;;;;;;5034237;28;20083;-75
2021/12/25 11:53:16;;;;;;;0.20;0.20;;;8.60;99.90;;;;;;5033014;28;20390;-76
2021/12/25 11:58:42;;;;;;;0.25;0.25;;;8.80;99.90;;;;;;5034280;28;20025;-76
2021/12/25 12:01:18;;;;;;;0.10;0.10;;;8.80;99.90;;;;;;5034071;28;20029;-76
2021/12/25 12:04:07;;;;;;;0.10;0.10;;;8.80;99.90;;;;;;5033904;28;20030;-75
2021/12/25 12:06:45;;;;;;;0.30;0.30;;;8.70;99.90;;;;;;5032646;28;20053;-75
2021/12/25 12:09:16;;;;;;;0.47;0.47;;;8.60;99.90;;;;;;5016178;28;20421;-75
2021/12/25 12:11:45;;;;;;;0.32;0.32;;;8.60;99.90;;;;;;5032951;28;20024;-76
2021/12/25 12:14:19;;;;;;;0.28;0.20;;;8.60;99.90;;;;;;5032557;28;20048;-75
2021/12/25 12:16:50;;;;;;;0.10;0.10;;;8.50;99.90;;;;;;5032269;28;20493;-75
2021/12/25 12:19:31;;;;;;;0.20;0.20;;;8.50;99.90;;;;;;5032510;28;20100;-75
2021/12/25 12:22:41;;;;;;;0.20;0.20;;;8.60;99.90;;;;;;5032294;28;20041;-76
2021/12/25 12:25:19;;;;;;;0.17;0.17;;;8.70;99.90;;;;;;5032699;28;20065;-75
2021/12/25 12:27:52;;;;;;;0.20;0.20;;;8.60;99.90;;;;;;5031567;28;20079;-75
2021/12/25 12:30:39;;;;;;;0.20;0.20;;;8.60;99.90;;;;;;5032984;28;20029;-74
2021/12/25 12:33:20;;;;;;;0.13;0.13;;;8.60;99.90;;;;;;5033482;28;20108;-75
2021/12/25 12:35:51;;;;;;;0.10;0.10;;;8.60;99.90;;;;;;5032098;28;20435;-75
2021/12/25 12:38:39;;;;;;;0.20;0.20;;;8.70;99.90;;;;;;5032173;28;20098;-75
2021/12/25 12:41:34;;;;;;;0.17;0.17;;;8.70;99.90;;;;;;5032108;28;20033;-75
2021/12/25 12:44:15;;;;;;;0.20;0.20;;;8.70;99.90;;;;;;5026585;28;20060;-76
2021/12/25 12:46:50;;;;;;;0.20;0.20;;;8.60;99.90;;;;;;5032992;28;20457;-75
2021/12/25 12:49:18;;;;;;;0.10;0.10;;;8.50;99.90;;;;;;5032904;28;20033;-76
2021/12/25 12:52:07;;;;;;;0.10;0.10;;;8.50;99.90;;;;;;5031903;28;20083;-75
2021/12/25 12:54:47;;;;;;;0.20;0.20;;;8.50;99.90;;;;;;5032993;28;20083;-75
2021/12/25 12:57:18;;;;;;;2.53;1.23;;;8.50;99.90;;;;;;5032881;28;20013;-75
2021/12/25 12:59:46;;;;;;;0.95;0.70;;;8.40;99.90;;;;;;5032724;28;20026;-75
2021/12/25 13:02:13;;;;;;;0.20;0.20;;;8.40;99.90;;;;;;5015248;28;20036;-75
2021/12/25 13:04:47;;;;;;;2.85;2.03;;;8.40;99.90;;;;;;5031862;28;20492;-75
2021/12/25 13:07:16;;;;;;;0.52;0.45;;;8.30;99.90;;;;;;5031716;28;20053;-75
2021/12/25 13:09:54;;;;;;;0.10;0.10;;;8.20;99.90;;;;;;5031874;28;20075;-75
2021/12/25 13:15:04;;;;;;;0.10;0.10;;;8.30;99.90;;;;;;5032082;28;20017;-75
2021/12/25 13:17:30;;;;;;;0.20;0.20;;;8.20;99.90;;;;;;5032485;28;20021;-76
2021/12/25 13:19:56;;;;;;;0.10;0.10;;;8.30;99.90;;;;;;5032591;28;20136;-76
2021/12/25 13:22:22;;;;;;;0.20;0.20;;;8.30;99.90;;;;;;5032173;28;20029;-75
2021/12/25 13:24:54;;;;;;;0.10;0.10;;;8.40;99.90;;;;;;5032569;28;20099;-76
2021/12/25 13:27:20;;;;;;;0.10;0.10;;;8.40;99.90;;;;;;5014761;28;20484;-76
2021/12/25 13:29:46;;;;;;;0.10;0.10;;;8.50;99.90;;;;;;5032167;28;20420;-76
2021/12/25 13:32:12;;;;;;;0.20;0.20;;;8.60;99.90;;;;;;5032557;28;20030;-76
2021/12/25 13:34:39;;;;;;;0.30;0.30;;;8.60;99.90;;;;;;5032376;28;20063;-76
2021/12/25 13:37:09;;;;;;;0.10;0.10;;;8.50;99.90;;;;;;5030958;28;20023;-76
2021/12/25 13:39:38;;;;;;;0.10;0.10;;;8.50;99.90;;;;;;5014619;28;20028;-75
2021/12/25 13:42:09;;;;;;;0.10;0.10;;;8.50;99.90;;;;;;5032294;28;20436;-76
2021/12/25 13:44:38;;;;;;;0.20;0.20;;;8.60;99.90;;;;;;5030941;28;20251;-76
2021/12/25 13:47:13;;;;;;;0.10;0.10;;;8.50;99.90;;;;;;5030930;28;20040;-76
2021/12/25 13:49:54;;;;;;;0.30;0.30;;;8.50;99.90;;;;;;5014525;28;20025;-76
2021/12/25 13:52:20;;;;;;;0.10;0.10;;;8.50;99.90;;;;;;5030982;28;20032;-75
2021/12/25 13:54:53;;;;;;;0.70;0.70;;;8.50;99.90;;;;;;5030832;28;20030;-75
2021/12/25 13:57:19;;;;;;;0.10;0.10;;;8.50;99.90;;;;;;5030690;28;20422;-76
2021/12/25 13:59:56;;;;;;;0.10;0.10;;;8.50;99.90;;;;;;5031853;28;20104;-76
2021/12/25 14:02:24;;;;;;;0.10;0.10;;;8.60;99.90;;;;;;5030986;28;20029;-75
2021/12/25 14:04:52;;;;;;;0.57;0.57;;;8.60;99.90;;;;;;5032042;28;20049;-76
2021/12/25 14:07:21;;;;;;;0.10;0.10;;;8.60;99.90;;;;;;5031777;28;20040;-76
2021/12/25 14:10:09;;;;;;;0.10;0.10;;;8.60;99.90;;;;;;5031790;28;20112;-76
2021/12/25 14:12:43;;;;;;;0.10;0.10;;;8.60;99.90;;;;;;5030610;28;20018;-76
2021/12/25 14:15:10;;;;;;;0.10;0.10;;;8.60;99.90;;;;;;5014887;28;20022;-76
2021/12/25 14:17:37;;;;;;;0.30;0.30;;;8.70;99.90;;;;;;5030448;28;20021;-75